sensor_id;sensor_type;location;lat;lon;timestamp;pressure;altitude;pressure_sealevel;temperature;humidity
85623;BME280;76049;43.076;25.632;2024-03-08T00:04:36;99697.35;;;8.26;63.87
85623;BME280;76049;43.076;25.632;2024-03-08T00:09:45;99695.29;;;8.23;64.31
85623;BME280;76049;43.076;25.632;2024-03-08T00:14:54;99692.55;;;8.18;64.56
85623;BME280;76049;43.076;25.632;2024-03-08T00:20:02;99695.38;;;8.14;64.68
85623;BME280;76049;43.076;25.632;2024-03-08T00:25:13;99692.59;;;8.07;65.04
85623;BME280;76049;43.076;25.632;2024-03-08T00:30:20;99689.17;;;7.96;66.03
85623;BME280;76049;43.076;25.632;2024-03-08T00:35:29;99684.23;;;7.85;66.61
85623;BME280;76049;43.076;25.632;2024-03-08T00:40:37;99683.19;;;7.80;67.00
85623;BME280;76049;43.076;25.632;2024-03-08T00:45:46;99682.54;;;7.66;67.76
85623;BME280;76049;43.076;25.632;2024-03-08T00:50:54;99681.89;;;7.53;68.36
85623;BME280;76049;43.076;25.632;2024-03-08T00:56:02;99681.50;;;7.48;68.42
85623;BME280;76049;43.076;25.632;2024-03-08T01:01:12;99688.89;;;7.35;68.56
85623;BME280;76049;43.076;25.632;2024-03-08T01:06:22;99690.15;;;7.32;68.79
85623;BME280;76049;43.076;25.632;2024-03-08T01:11:30;99697.24;;;7.38;68.57
85623;BME280;76049;43.076;25.632;2024-03-08T01:16:38;99687.26;;;7.45;68.18
85623;BME280;76049;43.076;25.632;2024-03-08T01:21:46;99686.06;;;7.52;68.03
85623;BME280;76049;43.076;25.632;2024-03-08T01:26:53;99683.38;;;7.55;67.60
85623;BME280;76049;43.076;25.632;2024-03-08T01:32:01;99690.41;;;7.56;67.73
85623;BME280;76049;43.076;25.632;2024-03-08T01:37:09;99695.61;;;7.55;67.74
85623;BME280;76049;43.076;25.632;2024-03-08T01:42:17;99695.70;;;7.54;67.48
85623;BME280;76049;43.076;25.632;2024-03-08T01:47:25;99693.00;;;7.55;67.37
85623;BME280;76049;43.076;25.632;2024-03-08T01:52:33;99696.53;;;7.57;67.32
85623;BME280;76049;43.076;25.632;2024-03-08T01:57:42;99701.72;;;7.57;67.17
85623;BME280;76049;43.076;25.632;2024-03-08T02:02:51;99701.83;;;7.55;67.19
85623;BME280;76049;43.076;25.632;2024-03-08T02:08:02;99702.79;;;7.53;67.25
85623;BME280;76049;43.076;25.632;2024-03-08T02:13:10;99701.42;;;7.50;67.33
85623;BME280;76049;43.076;25.632;2024-03-08T02:18:18;99697.55;;;7.48;67.33
85623;BME280;76049;43.076;25.632;2024-03-08T02:23:26;99702.09;;;7.50;67.50
85623;BME280;76049;43.076;25.632;2024-03-08T02:28:42;99703.94;;;7.54;67.40
85623;BME280;76049;43.076;25.632;2024-03-08T02:33:50;99702.26;;;7.53;67.33
85623;BME280;76049;43.076;25.632;2024-03-08T02:38:57;99704.11;;;7.49;67.14
85623;BME280;76049;43.076;25.632;2024-03-08T02:44:05;99703.45;;;7.43;67.33
85623;BME280;76049;43.076;25.632;2024-03-08T02:49:13;99702.05;;;7.36;67.51
85623;BME280;76049;43.076;25.632;2024-03-08T02:54:21;99703.84;;;7.30;67.74
85623;BME280;76049;43.076;25.632;2024-03-08T02:59:30;99705.46;;;7.29;67.92
85623;BME280;76049;43.076;25.632;2024-03-08T03:04:40;99708.52;;;7.29;68.15
85623;BME280;76049;43.076;25.632;2024-03-08T03:09:49;99706.30;;;7.27;68.35
85623;BME280;76049;43.076;25.632;2024-03-08T03:14:57;99706.31;;;7.23;68.39
85623;BME280;76049;43.076;25.632;2024-03-08T03:20:06;99707.77;;;7.22;68.46
85623;BME280;76049;43.076;25.632;2024-03-08T03:25:19;99707.52;;;7.17;68.57
85623;BME280;76049;43.076;25.632;2024-03-08T03:30:32;99708.23;;;7.08;68.70
85623;BME280;76049;43.076;25.632;2024-03-08T03:35:40;99710.61;;;7.09;68.76
85623;BME280;76049;43.076;25.632;2024-03-08T03:40:49;99714.88;;;7.15;68.84
85623;BME280;76049;43.076;25.632;2024-03-08T03:45:58;99712.15;;;7.11;69.13
85623;BME280;76049;43.076;25.632;2024-03-08T03:51:06;99707.75;;;7.08;69.15
85623;BME280;76049;43.076;25.632;2024-03-08T03:56:16;99706.15;;;7.07;69.28
85623;BME280;76049;43.076;25.632;2024-03-08T04:01:24;99713.44;;;7.02;69.41
85623;BME280;76049;43.076;25.632;2024-03-08T04:06:31;99709.10;;;7.00;69.19
85623;BME280;76049;43.076;25.632;2024-03-08T04:11:39;99713.09;;;7.03;69.30
85623;BME280;76049;43.076;25.632;2024-03-08T04:16:46;99712.15;;;7.07;69.18
85623;BME280;76049;43.076;25.632;2024-03-08T04:21:54;99718.92;;;7.08;69.12
85623;BME280;76049;43.076;25.632;2024-03-08T04:27:02;99731.09;;;7.06;69.01
85623;BME280;76049;43.076;25.632;2024-03-08T04:32:11;99730.66;;;7.04;69.02
85623;BME280;76049;43.076;25.632;2024-03-08T04:37:19;99730.16;;;7.04;69.10
85623;BME280;76049;43.076;25.632;2024-03-08T04:42:28;99727.15;;;7.08;69.07
85623;BME280;76049;43.076;25.632;2024-03-08T04:47:39;99735.11;;;7.15;68.77
85623;BME280;76049;43.076;25.632;2024-03-08T04:52:47;99742.42;;;7.13;68.67
85623;BME280;76049;43.076;25.632;2024-03-08T04:57:55;99742.02;;;7.06;68.55
85623;BME280;76049;43.076;25.632;2024-03-08T05:03:03;99745.19;;;7.02;68.45
85623;BME280;76049;43.076;25.632;2024-03-08T05:08:10;99753.20;;;6.98;68.21
85623;BME280;76049;43.076;25.632;2024-03-08T05:13:18;99759.61;;;6.95;68.15
85623;BME280;76049;43.076;25.632;2024-03-08T05:18:26;99764.72;;;6.99;68.20
85623;BME280;76049;43.076;25.632;2024-03-08T05:30:18;99775.35;;;7.13;67.78
85623;BME280;76049;43.076;25.632;2024-03-08T05:35:27;99783.27;;;7.07;67.46
85623;BME280;76049;43.076;25.632;2024-03-08T05:40:35;99791.55;;;7.04;67.55
85623;BME280;76049;43.076;25.632;2024-03-08T05:45:43;99796.16;;;7.00;67.73
85623;BME280;76049;43.076;25.632;2024-03-08T05:50:51;99798.91;;;7.00;67.63
85623;BME280;76049;43.076;25.632;2024-03-08T05:55:59;99800.73;;;7.02;67.67
85623;BME280;76049;43.076;25.632;2024-03-08T06:01:07;99809.52;;;7.01;67.88
85623;BME280;76049;43.076;25.632;2024-03-08T06:06:17;99812.63;;;6.99;67.83
85623;BME280;76049;43.076;25.632;2024-03-08T06:11:26;99817.45;;;6.96;67.71
85623;BME280;76049;43.076;25.632;2024-03-08T06:16:35;99816.38;;;6.93;67.77
85623;BME280;76049;43.076;25.632;2024-03-08T06:21:42;99818.48;;;6.90;67.76
85623;BME280;76049;43.076;25.632;2024-03-08T06:26:50;99824.71;;;6.93;67.92
85623;BME280;76049;43.076;25.632;2024-03-08T06:32:00;99828.42;;;6.98;67.68
85623;BME280;76049;43.076;25.632;2024-03-08T06:37:08;99834.52;;;7.00;67.62
85623;BME280;76049;43.076;25.632;2024-03-08T06:42:16;99837.02;;;6.98;67.76
85623;BME280;76049;43.076;25.632;2024-03-08T06:47:25;99839.45;;;6.96;67.90
85623;BME280;76049;43.076;25.632;2024-03-08T06:52:33;99841.20;;;6.93;67.70
85623;BME280;76049;43.076;25.632;2024-03-08T06:57:40;99843.48;;;6.96;69.17
85623;BME280;76049;43.076;25.632;2024-03-08T07:02:49;99848.71;;;7.63;74.80
85623;BME280;76049;43.076;25.632;2024-03-08T07:07:59;99856.42;;;8.54;72.29
85623;BME280;76049;43.076;25.632;2024-03-08T07:13:07;99858.73;;;9.23;68.65
85623;BME280;76049;43.076;25.632;2024-03-08T07:18:15;99868.05;;;9.66;65.88
85623;BME280;76049;43.076;25.632;2024-03-08T07:23:23;99875.80;;;9.91;64.02
85623;BME280;76049;43.076;25.632;2024-03-08T07:28:47;99874.02;;;9.80;62.19
85623;BME280;76049;43.076;25.632;2024-03-08T07:40:03;99881.36;;;8.76;62.50
85623;BME280;76049;43.076;25.632;2024-03-08T07:45:12;99891.69;;;8.40;63.14
85623;BME280;76049;43.076;25.632;2024-03-08T07:50:21;99889.05;;;8.12;63.63
85623;BME280;76049;43.076;25.632;2024-03-08T07:55:29;99891.33;;;7.89;64.02
85623;BME280;76049;43.076;25.632;2024-03-08T08:00:38;99896.01;;;7.77;64.48
85623;BME280;76049;43.076;25.632;2024-03-08T08:05:45;99896.20;;;7.73;64.79
85623;BME280;76049;43.076;25.632;2024-03-08T08:10:53;99901.54;;;7.67;65.16
85623;BME280;76049;43.076;25.632;2024-03-08T08:16:01;99902.58;;;7.58;65.23
85623;BME280;76049;43.076;25.632;2024-03-08T08:21:09;99903.48;;;7.49;65.48
85623;BME280;76049;43.076;25.632;2024-03-08T08:26:17;99905.38;;;7.45;65.49
85623;BME280;76049;43.076;25.632;2024-03-08T08:31:27;99906.84;;;7.42;66.10
85623;BME280;76049;43.076;25.632;2024-03-08T08:36:35;99911.13;;;7.45;65.91
85623;BME280;76049;43.076;25.632;2024-03-08T08:41:43;99911.16;;;7.50;65.78
85623;BME280;76049;43.076;25.632;2024-03-08T08:46:50;99916.06;;;7.51;66.25
85623;BME280;76049;43.076;25.632;2024-03-08T08:51:58;99920.20;;;7.53;66.15
85623;BME280;76049;43.076;25.632;2024-03-08T08:57:06;99921.51;;;7.54;66.26
85623;BME280;76049;43.076;25.632;2024-03-08T09:02:14;99924.92;;;7.54;66.07
85623;BME280;76049;43.076;25.632;2024-03-08T09:07:22;99924.46;;;7.51;66.45
85623;BME280;76049;43.076;25.632;2024-03-08T09:12:30;99922.52;;;7.52;66.39
85623;BME280;76049;43.076;25.632;2024-03-08T09:17:39;99928.61;;;7.60;66.64
85623;BME280;76049;43.076;25.632;2024-03-08T09:22:48;99929.50;;;7.68;66.27
85623;BME280;76049;43.076;25.632;2024-03-08T09:27:58;99936.42;;;7.70;66.17
85623;BME280;76049;43.076;25.632;2024-03-08T09:33:07;99939.69;;;7.69;65.86
85623;BME280;76049;43.076;25.632;2024-03-08T09:38:16;99943.73;;;7.64;65.90
85623;BME280;76049;43.076;25.632;2024-03-08T09:43:26;99945.69;;;7.57;65.92
85623;BME280;76049;43.076;25.632;2024-03-08T09:48:35;99950.80;;;7.51;66.30
85623;BME280;76049;43.076;25.632;2024-03-08T09:53:43;99948.70;;;7.51;66.62
85623;BME280;76049;43.076;25.632;2024-03-08T09:58:50;99945.77;;;7.61;66.66
85623;BME280;76049;43.076;25.632;2024-03-08T10:04:27;99951.30;;;7.74;66.20
85623;BME280;76049;43.076;25.632;2024-03-08T10:09:37;99959.25;;;7.79;66.05
85623;BME280;76049;43.076;25.632;2024-03-08T10:14:45;99961.48;;;7.76;65.89
85623;BME280;76049;43.076;25.632;2024-03-08T10:19:54;99960.81;;;7.70;65.99
85623;BME280;76049;43.076;25.632;2024-03-08T10:25:02;99961.25;;;7.65;65.79
85623;BME280;76049;43.076;25.632;2024-03-08T10:30:14;99967.40;;;7.60;65.65
85623;BME280;76049;43.076;25.632;2024-03-08T10:35:22;99965.74;;;7.55;65.77
85623;BME280;76049;43.076;25.632;2024-03-08T10:40:30;99965.26;;;7.60;66.08
85623;BME280;76049;43.076;25.632;2024-03-08T10:45:39;99960.00;;;7.77;66.97
85623;BME280;76049;43.076;25.632;2024-03-08T10:50:48;99961.36;;;7.77;65.85
85623;BME280;76049;43.076;25.632;2024-03-08T10:55:57;99958.44;;;7.63;65.58
85623;BME280;76049;43.076;25.632;2024-03-08T11:01:05;99959.41;;;7.45;65.59
85623;BME280;76049;43.076;25.632;2024-03-08T11:06:16;99958.57;;;7.31;66.18
85623;BME280;76049;43.076;25.632;2024-03-08T11:11:28;99961.67;;;7.17;66.54
85623;BME280;76049;43.076;25.632;2024-03-08T11:16:40;99954.35;;;7.09;66.79
85623;BME280;76049;43.076;25.632;2024-03-08T11:21:58;99954.47;;;7.10;67.04
85623;BME280;76049;43.076;25.632;2024-03-08T11:27:06;99953.45;;;7.15;67.02
85623;BME280;76049;43.076;25.632;2024-03-08T11:32:17;99955.54;;;7.17;66.75
85623;BME280;76049;43.076;25.632;2024-03-08T11:37:29;99953.77;;;7.18;66.44
85623;BME280;76049;43.076;25.632;2024-03-08T11:42:37;99951.34;;;7.18;66.56
85623;BME280;76049;43.076;25.632;2024-03-08T11:47:45;99952.80;;;7.21;66.59
85623;BME280;76049;43.076;25.632;2024-03-08T11:52:53;99954.41;;;7.25;66.23
85623;BME280;76049;43.076;25.632;2024-03-08T11:58:07;99954.16;;;7.27;66.01
85623;BME280;76049;43.076;25.632;2024-03-08T12:03:17;99951.54;;;7.30;66.24
85623;BME280;76049;43.076;25.632;2024-03-08T12:08:26;99952.91;;;7.38;66.08
85623;BME280;76049;43.076;25.632;2024-03-08T12:13:36;99953.91;;;7.42;65.85
85623;BME280;76049;43.076;25.632;2024-03-08T12:18:46;99951.77;;;7.38;65.54
85623;BME280;76049;43.076;25.632;2024-03-08T12:24:06;99948.50;;;7.34;65.93
85623;BME280;76049;43.076;25.632;2024-03-08T12:29:19;99946.47;;;7.32;65.83
85623;BME280;76049;43.076;25.632;2024-03-08T12:34:29;99951.58;;;7.30;65.87
85623;BME280;76049;43.076;25.632;2024-03-08T12:39:40;99950.61;;;7.28;66.04
85623;BME280;76049;43.076;25.632;2024-03-08T12:44:48;99951.39;;;7.28;65.85
85623;BME280;76049;43.076;25.632;2024-03-08T12:49:55;99951.33;;;7.30;65.75
85623;BME280;76049;43.076;25.632;2024-03-08T12:55:04;99950.55;;;7.31;65.73
85623;BME280;76049;43.076;25.632;2024-03-08T13:00:15;99943.56;;;7.30;65.78
85623;BME280;76049;43.076;25.632;2024-03-08T13:05:26;99950.31;;;7.29;65.77
85623;BME280;76049;43.076;25.632;2024-03-08T13:10:34;99954.34;;;7.24;65.70
85623;BME280;76049;43.076;25.632;2024-03-08T13:15:43;99963.05;;;7.19;65.59
85623;BME280;76049;43.076;25.632;2024-03-08T13:20:51;99957.48;;;7.14;65.79
85623;BME280;76049;43.076;25.632;2024-03-08T13:25:59;99956.34;;;7.14;65.97
85623;BME280;76049;43.076;25.632;2024-03-08T13:31:06;99957.77;;;7.16;66.12
85623;BME280;76049;43.076;25.632;2024-03-08T13:36:16;99964.55;;;7.18;66.27
85623;BME280;76049;43.076;25.632;2024-03-08T13:41:27;99957.14;;;7.17;66.11
85623;BME280;76049;43.076;25.632;2024-03-08T13:46:35;99954.73;;;7.07;66.03
85623;BME280;76049;43.076;25.632;2024-03-08T13:51:43;99949.09;;;7.03;66.24
85623;BME280;76049;43.076;25.632;2024-03-08T13:56:52;99954.86;;;7.01;66.49
85623;BME280;76049;43.076;25.632;2024-03-08T14:02:00;99954.05;;;7.06;66.37
85623;BME280;76049;43.076;25.632;2024-03-08T14:07:09;99954.20;;;7.06;66.20
85623;BME280;76049;43.076;25.632;2024-03-08T14:12:17;99954.21;;;7.06;66.12
85623;BME280;76049;43.076;25.632;2024-03-08T14:17:25;99951.59;;;7.03;66.28
85623;BME280;76049;43.076;25.632;2024-03-08T14:22:33;99944.15;;;6.96;66.30
85623;BME280;76049;43.076;25.632;2024-03-08T14:27:41;99948.58;;;6.93;66.71
85623;BME280;76049;43.076;25.632;2024-03-08T14:32:49;99945.90;;;6.85;66.96
85623;BME280;76049;43.076;25.632;2024-03-08T14:37:58;99946.11;;;6.79;67.13
85623;BME280;76049;43.076;25.632;2024-03-08T14:43:06;99946.17;;;6.81;67.07
85623;BME280;76049;43.076;25.632;2024-03-08T14:48:14;99939.34;;;6.89;67.01
85623;BME280;76049;43.076;25.632;2024-03-08T14:53:22;99939.30;;;6.95;66.75
85623;BME280;76049;43.076;25.632;2024-03-08T14:58:31;99938.30;;;6.92;66.69
85623;BME280;76049;43.076;25.632;2024-03-08T15:03:39;99934.20;;;6.90;66.59
85623;BME280;76049;43.076;25.632;2024-03-08T15:08:48;99938.99;;;7.05;66.83
85623;BME280;76049;43.076;25.632;2024-03-08T15:13:56;99940.23;;;7.22;65.90
85623;BME280;76049;43.076;25.632;2024-03-08T15:19:04;99943.63;;;7.25;65.57
85623;BME280;76049;43.076;25.632;2024-03-08T15:24:13;99947.69;;;7.27;65.41
85623;BME280;76049;43.076;25.632;2024-03-08T15:29:27;99954.96;;;7.23;65.28
85623;BME280;76049;43.076;25.632;2024-03-08T15:34:35;99959.01;;;7.15;65.27
85623;BME280;76049;43.076;25.632;2024-03-08T15:39:44;99958.65;;;7.06;65.39
85623;BME280;76049;43.076;25.632;2024-03-08T15:44:53;99965.09;;;7.01;65.64
85623;BME280;76049;43.076;25.632;2024-03-08T15:50:02;99971.23;;;6.95;65.92
85623;BME280;76049;43.076;25.632;2024-03-08T15:55:13;99974.95;;;6.90;65.93
85623;BME280;76049;43.076;25.632;2024-03-08T16:00:23;99980.82;;;6.92;66.11
85623;BME280;76049;43.076;25.632;2024-03-08T16:05:42;99990.21;;;6.94;65.99
85623;BME280;76049;43.076;25.632;2024-03-08T16:10:51;99989.53;;;6.92;65.54
85623;BME280;76049;43.076;25.632;2024-03-08T16:15:59;99990.89;;;6.86;65.62
85623;BME280;76049;43.076;25.632;2024-03-08T16:21:07;99991.10;;;6.82;65.67
85623;BME280;76049;43.076;25.632;2024-03-08T16:26:15;99993.56;;;6.77;65.61
85623;BME280;76049;43.076;25.632;2024-03-08T16:31:25;99996.78;;;6.72;65.65
85623;BME280;76049;43.076;25.632;2024-03-08T16:36:32;100000.79;;;6.69;65.70
85623;BME280;76049;43.076;25.632;2024-03-08T16:41:40;100003.62;;;6.70;65.69
85623;BME280;76049;43.076;25.632;2024-03-08T16:46:48;100007.84;;;6.73;65.73
85623;BME280;76049;43.076;25.632;2024-03-08T16:51:56;100014.33;;;6.74;65.80
85623;BME280;76049;43.076;25.632;2024-03-08T16:57:06;100019.92;;;6.72;65.78
85623;BME280;76049;43.076;25.632;2024-03-08T17:02:18;100020.06;;;6.68;65.94
85623;BME280;76049;43.076;25.632;2024-03-08T17:07:26;100027.39;;;6.64;66.08
85623;BME280;76049;43.076;25.632;2024-03-08T17:12:33;100028.93;;;6.60;66.37
85623;BME280;76049;43.076;25.632;2024-03-08T17:17:42;100030.16;;;6.61;66.22
85623;BME280;76049;43.076;25.632;2024-03-08T17:22:54;100033.06;;;6.65;66.18
85623;BME280;76049;43.076;25.632;2024-03-08T17:28:03;100033.27;;;6.63;66.21
85623;BME280;76049;43.076;25.632;2024-03-08T17:33:13;100029.39;;;6.59;66.45
85623;BME280;76049;43.076;25.632;2024-03-08T17:38:27;100032.98;;;6.55;66.45
85623;BME280;76049;43.076;25.632;2024-03-08T17:43:35;100030.89;;;6.51;66.45
85623;BME280;76049;43.076;25.632;2024-03-08T17:48:43;100035.70;;;6.47;66.51
85623;BME280;76049;43.076;25.632;2024-03-08T17:53:51;100039.86;;;6.42;66.87
85623;BME280;76049;43.076;25.632;2024-03-08T17:58:59;100035.92;;;6.43;66.89
85623;BME280;76049;43.076;25.632;2024-03-08T18:04:08;100039.86;;;6.49;66.73
85623;BME280;76049;43.076;25.632;2024-03-08T18:09:16;100040.71;;;6.51;66.87
85623;BME280;76049;43.076;25.632;2024-03-08T18:14:29;100037.35;;;6.48;66.82
85623;BME280;76049;43.076;25.632;2024-03-08T18:19:38;100040.94;;;6.45;67.00
85623;BME280;76049;43.076;25.632;2024-03-08T18:24:46;100043.65;;;6.40;67.22
85623;BME280;76049;43.076;25.632;2024-03-08T18:29:54;100041.61;;;6.37;67.36
85623;BME280;76049;43.076;25.632;2024-03-08T18:35:01;100044.11;;;6.41;67.46
85623;BME280;76049;43.076;25.632;2024-03-08T18:40:13;100047.67;;;6.45;67.42
85623;BME280;76049;43.076;25.632;2024-03-08T18:45:22;100046.98;;;6.42;67.50
85623;BME280;76049;43.076;25.632;2024-03-08T18:50:31;100045.70;;;6.41;67.52
85623;BME280;76049;43.076;25.632;2024-03-08T18:55:39;100049.49;;;6.37;67.58
85623;BME280;76049;43.076;25.632;2024-03-08T19:00:49;100052.54;;;6.33;67.69
85623;BME280;76049;43.076;25.632;2024-03-08T19:05:58;100056.00;;;6.30;67.75
85623;BME280;76049;43.076;25.632;2024-03-08T19:11:08;100057.14;;;6.34;67.95
85623;BME280;76049;43.076;25.632;2024-03-08T19:16:16;100055.27;;;6.40;67.80
85623;BME280;76049;43.076;25.632;2024-03-08T19:27:44;100049.43;;;6.48;67.37
85623;BME280;76049;43.076;25.632;2024-03-08T19:32:53;100050.23;;;6.43;67.27
85623;BME280;76049;43.076;25.632;2024-03-08T19:38:01;100048.14;;;6.40;67.29
85623;BME280;76049;43.076;25.632;2024-03-08T19:43:10;100053.48;;;6.38;67.14
85623;BME280;76049;43.076;25.632;2024-03-08T19:48:21;100054.71;;;6.40;67.21
85623;BME280;76049;43.076;25.632;2024-03-08T19:53:28;100056.63;;;6.46;67.26
85623;BME280;76049;43.076;25.632;2024-03-08T19:58:36;100050.17;;;6.45;67.09
85623;BME280;76049;43.076;25.632;2024-03-08T20:03:44;100054.62;;;6.42;67.07
85623;BME280;76049;43.076;25.632;2024-03-08T20:08:53;100050.27;;;6.40;67.02
85623;BME280;76049;43.076;25.632;2024-03-08T20:14:02;100051.17;;;6.36;66.91
85623;BME280;76049;43.076;25.632;2024-03-08T20:19:14;100048.20;;;6.35;67.03
85623;BME280;76049;43.076;25.632;2024-03-08T20:24:22;100047.54;;;6.33;66.88
85623;BME280;76049;43.076;25.632;2024-03-08T20:29:31;100044.23;;;6.38;66.65
85623;BME280;76049;43.076;25.632;2024-03-08T20:34:39;100046.60;;;6.46;66.58
85623;BME280;76049;43.076;25.632;2024-03-08T20:39:48;100044.55;;;6.49;66.15
85623;BME280;76049;43.076;25.632;2024-03-08T20:44:58;100041.70;;;6.50;66.00
85623;BME280;76049;43.076;25.632;2024-03-08T20:50:08;100039.45;;;6.48;66.28
85623;BME280;76049;43.076;25.632;2024-03-08T20:55:20;100038.98;;;6.38;67.00
85623;BME280;76049;43.076;25.632;2024-03-08T21:00:30;100036.98;;;6.35;67.28
85623;BME280;76049;43.076;25.632;2024-03-08T21:05:52;100036.80;;;6.38;67.43
85623;BME280;76049;43.076;25.632;2024-03-08T21:11:02;100031.86;;;6.43;67.48
85623;BME280;76049;43.076;25.632;2024-03-08T21:16:12;100030.49;;;6.44;67.53
85623;BME280;76049;43.076;25.632;2024-03-08T21:21:20;100025.38;;;6.39;67.64
85623;BME280;76049;43.076;25.632;2024-03-08T21:26:29;100019.52;;;6.32;67.66
85623;BME280;76049;43.076;25.632;2024-03-08T21:31:38;100024.33;;;6.26;67.87
85623;BME280;76049;43.076;25.632;2024-03-08T21:36:45;100021.96;;;6.20;68.04
85623;BME280;76049;43.076;25.632;2024-03-08T21:41:54;100023.53;;;6.20;68.17
85623;BME280;76049;43.076;25.632;2024-03-08T21:47:02;100014.83;;;6.19;68.39
85623;BME280;76049;43.076;25.632;2024-03-08T21:52:11;100015.52;;;6.16;68.61
85623;BME280;76049;43.076;25.632;2024-03-08T21:57:21;100015.44;;;6.15;68.39
85623;BME280;76049;43.076;25.632;2024-03-08T22:02:29;100012.77;;;6.12;68.74
85623;BME280;76049;43.076;25.632;2024-03-08T22:07:37;100008.02;;;6.10;68.86
85623;BME280;76049;43.076;25.632;2024-03-08T22:12:47;100007.32;;;6.08;69.00
85623;BME280;76049;43.076;25.632;2024-03-08T22:17:55;100009.46;;;6.06;69.09
85623;BME280;76049;43.076;25.632;2024-03-08T22:23:03;100004.73;;;6.07;68.95
85623;BME280;76049;43.076;25.632;2024-03-08T22:28:12;100002.67;;;6.14;68.95
85623;BME280;76049;43.076;25.632;2024-03-08T22:33:21;100005.05;;;6.12;68.86
85623;BME280;76049;43.076;25.632;2024-03-08T22:38:32;100007.73;;;6.10;68.72
85623;BME280;76049;43.076;25.632;2024-03-08T22:43:42;100006.29;;;6.11;68.44
85623;BME280;76049;43.076;25.632;2024-03-08T22:48:50;100005.59;;;6.12;68.60
85623;BME280;76049;43.076;25.632;2024-03-08T22:54:00;100003.17;;;6.11;68.58
85623;BME280;76049;43.076;25.632;2024-03-08T22:59:07;100007.73;;;6.12;69.09
85623;BME280;76049;43.076;25.632;2024-03-08T23:04:17;100004.60;;;6.14;69.36
85623;BME280;76049;43.076;25.632;2024-03-08T23:09:26;100008.77;;;6.18;69.43
85623;BME280;76049;43.076;25.632;2024-03-08T23:14:35;100003.81;;;6.21;69.52
85623;BME280;76049;43.076;25.632;2024-03-08T23:19:44;100005.73;;;6.20;69.47
85623;BME280;76049;43.076;25.632;2024-03-08T23:24:55;100006.54;;;6.10;69.64
85623;BME280;76049;43.076;25.632;2024-03-08T23:30:06;100004.86;;;6.04;69.82
85623;BME280;76049;43.076;25.632;2024-03-08T23:35:17;100001.70;;;6.05;69.87
85623;BME280;76049;43.076;25.632;2024-03-08T23:40:26;99993.93;;;6.11;69.92
85623;BME280;76049;43.076;25.632;2024-03-08T23:45:36;99988.75;;;6.17;69.67
85623;BME280;76049;43.076;25.632;2024-03-08T23:50:44;99984.98;;;6.14;69.59
85623;BME280;76049;43.076;25.632;2024-03-08T23:55:52;99981.00;;;6.04;69.57
